Time;durP1;ratioP1;P1;durP2;ratioP2;P2;SDS_P1;SDS_P2;PMS_P1;PMS_P2;Temp;Humidity;BMP_temperature;BMP_pressure;BME280_temperature;BME280_humidity;BME280_pressure;Samples;Min_cycle;Max_cycle;Signal;HPM_P1;HPM_P2
2023/09/20 00:02:16;;;;;;;6.65;3.15;;;16.60;82.50;;;;;;4903370;29;20060;-93
2023/09/20 00:04:47;;;;;;;7.85;2.97;;;16.60;82.60;;;;;;4903522;29;20056;-93
2023/09/20 00:07:16;;;;;;;7.47;3.30;;;16.60;82.60;;;;;;4903191;29;20830;-93
2023/09/20 00:09:43;;;;;;;9.32;3.63;;;16.50;82.60;;;;;;4903341;29;20080;-92
2023/09/20 00:12:10;;;;;;;8.27;3.28;;;16.50;82.70;;;;;;4903456;29;20051;-93
2023/09/20 00:14:38;;;;;;;7.70;3.90;;;16.50;82.80;;;;;;4903164;29;20044;-93
2023/09/20 00:17:06;;;;;;;8.32;3.75;;;16.50;82.80;;;;;;4903024;29;20055;-93
2023/09/20 00:19:34;;;;;;;7.80;3.63;;;16.50;82.90;;;;;;4903161;29;20063;-94
2023/09/20 00:22:02;;;;;;;7.60;3.63;;;16.50;82.90;;;;;;4903297;29;20052;-92
2023/09/20 00:24:33;;;;;;;7.18;3.45;;;16.50;82.80;;;;;;4903367;29;20048;-92
2023/09/20 00:27:00;;;;;;;10.20;4.22;;;16.60;82.70;;;;;;4903022;29;20498;-92
2023/09/20 00:29:31;;;;;;;8.20;3.92;;;16.60;82.60;;;;;;4903110;29;20502;-93
2023/09/20 00:31:58;;;;;;;9.13;3.87;;;16.50;82.70;;;;;;4903241;29;20075;-94
2023/09/20 00:34:26;;;;;;;7.72;3.55;;;16.50;82.90;;;;;;4902762;29;20044;-92
2023/09/20 00:36:56;;;;;;;8.70;3.75;;;16.50;83.00;;;;;;4902972;29;20040;-92
2023/09/20 00:39:24;;;;;;;7.38;3.60;;;16.50;82.80;;;;;;4902657;29;20056;-92
2023/09/20 00:41:52;;;;;;;8.07;4.00;;;16.50;82.70;;;;;;4902941;29;20048;-93
2023/09/20 00:44:20;;;;;;;7.60;3.87;;;16.50;82.60;;;;;;4902538;29;20056;-95
2023/09/20 00:46:47;;;;;;;9.50;4.18;;;16.50;82.60;;;;;;4902467;29;20059;-93
2023/09/20 00:49:16;;;;;;;7.28;3.70;;;16.50;82.60;;;;;;4902707;29;20059;-92
2023/09/20 00:51:47;;;;;;;8.07;3.95;;;16.40;82.40;;;;;;4902529;29;20059;-91
2023/09/20 00:54:17;;;;;;;10.38;4.20;;;16.40;82.30;;;;;;4902562;29;20410;-92
2023/09/20 00:56:45;;;;;;;10.97;4.27;;;16.40;82.30;;;;;;4918046;29;20432;-93
2023/09/20 00:59:13;;;;;;;7.75;3.97;;;16.30;82.60;;;;;;4903142;29;20520;-93
2023/09/20 01:01:41;;;;;;;10.38;4.07;;;16.30;82.50;;;;;;4902637;29;20044;-93
2023/09/20 01:04:09;;;;;;;10.48;4.50;;;16.30;82.40;;;;;;4902753;29;20554;-94
2023/09/20 01:06:41;;;;;;;7.90;4.05;;;16.20;82.70;;;;;;4902553;29;20044;-93
2023/09/20 01:09:09;;;;;;;7.43;3.53;;;16.10;82.70;;;;;;4902185;29;20047;-93
2023/09/20 01:11:37;;;;;;;7.97;3.80;;;16.10;82.80;;;;;;4902342;29;20119;-93
2023/09/20 01:14:04;;;;;;;9.10;4.03;;;16.10;82.70;;;;;;4901890;29;20142;-93
2023/09/20 01:16:33;;;;;;;8.85;4.05;;;16.10;82.80;;;;;;4902170;29;20044;-92
2023/09/20 01:19:04;;;;;;;8.98;4.10;;;16.00;83.00;;;;;;4901996;29;20052;-93
2023/09/20 01:21:41;;;;;;;9.17;3.97;;;16.00;83.00;;;;;;4902148;29;20056;-92
2023/09/20 01:24:10;;;;;;;9.27;4.30;;;16.00;83.20;;;;;;4901914;29;20056;-92
2023/09/20 01:26:39;;;;;;;8.50;4.13;;;15.90;83.30;;;;;;4901841;29;20048;-92
2023/09/20 01:29:06;;;;;;;7.85;3.92;;;16.00;83.00;;;;;;4901859;29;20494;-93
2023/09/20 01:31:36;;;;;;;8.15;4.13;;;16.00;83.00;;;;;;4901772;29;20056;-93
2023/09/20 01:34:06;;;;;;;7.60;4.30;;;15.90;83.10;;;;;;4901650;29;20055;-93
2023/09/20 01:36:36;;;;;;;7.90;4.50;;;15.80;83.00;;;;;;4901808;29;20143;-93
2023/09/20 01:39:08;;;;;;;8.57;4.80;;;15.70;83.10;;;;;;4918149;29;20052;-92
2023/09/20 01:41:36;;;;;;;8.98;4.10;;;15.70;83.30;;;;;;4902424;29;20052;-92
2023/09/20 01:44:04;;;;;;;8.07;4.20;;;15.70;83.30;;;;;;4917704;29;20056;-94
2023/09/20 01:46:34;;;;;;;8.10;4.23;;;15.60;83.10;;;;;;4901914;29;20135;-92
2023/09/20 01:49:12;;;;;;;9.68;4.45;;;15.60;83.10;;;;;;4902405;29;20055;-93
2023/09/20 01:51:39;;;;;;;9.32;4.63;;;15.70;83.10;;;;;;4902104;29;20044;-92
2023/09/20 01:54:07;;;;;;;8.43;4.45;;;15.60;83.20;;;;;;4917422;29;20139;-93
2023/09/20 01:56:35;;;;;;;8.23;4.07;;;15.70;82.80;;;;;;4901581;29;20410;-93
2023/09/20 01:59:05;;;;;;;9.87;4.40;;;15.60;82.80;;;;;;4901856;29;20052;-92
2023/09/20 02:01:34;;;;;;;9.02;4.68;;;15.60;82.60;;;;;;4902087;29;20048;-92
2023/09/20 02:04:05;;;;;;;9.23;4.45;;;15.50;82.90;;;;;;4901799;29;20052;-93
2023/09/20 02:06:32;;;;;;;9.00;5.10;;;15.50;83.20;;;;;;4901382;29;20056;-91
2023/09/20 02:09:00;;;;;;;9.45;4.20;;;15.40;83.50;;;;;;4901889;29;20040;-93
2023/09/20 02:11:27;;;;;;;10.53;4.87;;;15.40;83.80;;;;;;4901526;29;20510;-93
2023/09/20 02:13:55;;;;;;;8.32;4.40;;;15.30;83.80;;;;;;4901489;29;20143;-92
2023/09/20 02:16:23;;;;;;;8.68;4.25;;;15.30;83.90;;;;;;4917208;29;20044;-92
2023/09/20 02:18:53;;;;;;;9.07;4.97;;;15.30;83.80;;;;;;4902357;29;20047;-93
2023/09/20 02:21:21;;;;;;;8.88;4.82;;;15.20;83.50;;;;;;4901330;29;20044;-92
2023/09/20 02:23:52;;;;;;;12.37;5.43;;;15.20;84.00;;;;;;4901469;29;20084;-92
2023/09/20 02:26:19;;;;;;;8.70;4.78;;;15.10;84.20;;;;;;4901479;29;20056;-91
2023/09/20 02:28:46;;;;;;;9.95;5.32;;;15.00;84.50;;;;;;4901303;29;20055;-93
2023/09/20 02:31:18;;;;;;;9.93;5.07;;;15.10;84.50;;;;;;4901352;29;20045;-93
2023/09/20 02:33:45;;;;;;;8.93;4.93;;;15.10;84.50;;;;;;4901356;29;20558;-92
2023/09/20 02:36:12;;;;;;;9.50;4.80;;;15.00;84.50;;;;;;4901163;29;20068;-92
2023/09/20 02:38:49;;;;;;;9.20;4.97;;;15.00;84.50;;;;;;4916753;29;20138;-93
2023/09/20 02:41:16;;;;;;;8.75;4.78;;;15.00;84.40;;;;;;4901606;29;20573;-92
2023/09/20 02:43:52;;;;;;;8.27;4.20;;;15.00;84.60;;;;;;4902161;29;20048;-92
2023/09/20 02:46:20;;;;;;;9.20;4.65;;;14.90;84.70;;;;;;4904782;29;20533;-93
2023/09/20 02:48:50;;;;;;;8.30;4.13;;;14.90;84.70;;;;;;4904825;29;20136;-92
2023/09/20 02:51:18;;;;;;;8.18;4.50;;;14.90;84.70;;;;;;4905358;29;20048;-92
2023/09/20 02:53:45;;;;;;;8.35;4.43;;;14.90;84.80;;;;;;4904698;29;20072;-93
2023/09/20 02:56:12;;;;;;;8.77;4.57;;;14.90;84.80;;;;;;4920021;29;20052;-93
2023/09/20 02:58:40;;;;;;;8.95;4.68;;;14.90;84.70;;;;;;4920247;29;20147;-92
2023/09/20 03:01:09;;;;;;;9.80;4.10;;;14.90;84.50;;;;;;4904574;29;20052;-92
2023/09/20 03:03:36;;;;;;;9.77;5.05;;;14.90;84.50;;;;;;4920545;29;20052;-91
2023/09/20 03:06:09;;;;;;;8.38;4.82;;;14.80;84.70;;;;;;4904613;29;20103;-95
2023/09/20 03:08:41;;;;;;;9.32;4.43;;;14.70;85.10;;;;;;4904239;29;20048;-94
2023/09/20 03:11:19;;;;;;;11.32;4.90;;;14.70;85.20;;;;;;4905485;29;20116;-91
2023/09/20 03:13:48;;;;;;;10.13;4.97;;;14.60;85.20;;;;;;4906651;29;20063;-94
2023/09/20 03:16:18;;;;;;;10.75;4.47;;;14.60;85.40;;;;;;4908519;29;20076;-94
2023/09/20 03:18:50;;;;;;;11.43;4.40;;;14.60;85.60;;;;;;4920473;29;20052;-93
2023/09/20 03:21:21;;;;;;;8.50;4.43;;;14.60;85.40;;;;;;4905566;29;20052;-94
2023/09/20 03:23:49;;;;;;;8.57;4.50;;;14.60;85.50;;;;;;4904910;29;20052;-95
2023/09/20 03:26:16;;;;;;;7.20;4.17;;;14.60;85.70;;;;;;4904464;29;20044;-92
2023/09/20 03:28:46;;;;;;;8.88;4.50;;;14.50;85.60;;;;;;4904615;29;20048;-93
2023/09/20 03:31:18;;;;;;;8.65;4.43;;;14.50;85.70;;;;;;4905459;29;20048;-94
2023/09/20 03:33:49;;;;;;;10.32;4.60;;;14.50;85.70;;;;;;4904911;29;20111;-93
2023/09/20 03:36:20;;;;;;;8.73;4.40;;;14.50;85.70;;;;;;4905169;29;20058;-93
2023/09/20 03:38:49;;;;;;;10.63;4.73;;;14.60;85.60;;;;;;4904555;29;20087;-94
2023/09/20 03:41:17;;;;;;;9.65;4.90;;;14.60;85.30;;;;;;4920243;29;20410;-94
2023/09/20 03:43:45;;;;;;;9.75;5.32;;;14.60;85.20;;;;;;4904417;29;20490;-93
2023/09/20 03:46:14;;;;;;;8.50;4.40;;;14.60;85.10;;;;;;4905835;29;20048;-89
2023/09/20 03:48:44;;;;;;;8.77;4.85;;;14.60;85.10;;;;;;4906801;29;20062;-93
2023/09/20 03:51:17;;;;;;;8.53;4.57;;;14.60;85.10;;;;;;4906867;29;20048;-90
2023/09/20 03:53:45;;;;;;;8.32;4.50;;;14.60;85.20;;;;;;4905020;29;20130;-89
2023/09/20 03:56:19;;;;;;;8.80;4.90;;;14.60;85.30;;;;;;4925090;29;20076;-88
2023/09/20 03:58:46;;;;;;;9.25;5.35;;;14.50;85.50;;;;;;4904201;29;20051;-90
2023/09/20 04:01:13;;;;;;;10.82;5.18;;;14.50;85.60;;;;;;4903738;29;20408;-90
2023/09/20 04:03:43;;;;;;;10.40;4.80;;;14.50;85.60;;;;;;4903657;29;20044;-91
2023/09/20 04:06:10;;;;;;;8.55;4.20;;;14.50;85.70;;;;;;4903520;29;20051;-90
2023/09/20 04:08:38;;;;;;;9.23;4.80;;;14.50;85.70;;;;;;4903368;29;20072;-91
2023/09/20 04:11:06;;;;;;;11.32;4.70;;;14.50;85.90;;;;;;4903620;29;20056;-91
2023/09/20 04:13:33;;;;;;;10.35;4.70;;;14.50;85.80;;;;;;4903424;29;20052;-91
2023/09/20 04:16:06;;;;;;;10.40;4.63;;;14.50;85.80;;;;;;4903613;29;20040;-91
2023/09/20 04:18:33;;;;;;;10.10;5.00;;;14.40;85.90;;;;;;4903582;29;20104;-90
2023/09/20 04:21:00;;;;;;;7.95;4.28;;;14.40;85.90;;;;;;4903337;29;20055;-90
2023/09/20 04:23:31;;;;;;;8.50;4.50;;;14.40;86.10;;;;;;4903447;29;20040;-89
2023/09/20 04:25:58;;;;;;;8.43;4.80;;;14.30;86.20;;;;;;4903392;29;20096;-91
2023/09/20 04:28:25;;;;;;;10.73;5.20;;;14.40;86.00;;;;;;4903150;29;20075;-91
2023/09/20 04:30:53;;;;;;;7.85;3.95;;;14.40;86.10;;;;;;4918754;29;20127;-91
2023/09/20 04:33:20;;;;;;;8.52;4.13;;;14.40;86.00;;;;;;4903156;29;20528;-90
2023/09/20 04:35:48;;;;;;;9.15;4.20;;;14.40;85.90;;;;;;4903188;29;20047;-89
2023/09/20 04:38:21;;;;;;;9.93;4.60;;;14.40;85.70;;;;;;4903725;29;20104;-91
2023/09/20 04:40:48;;;;;;;8.20;3.67;;;14.40;85.60;;;;;;4918648;29;20522;-90
2023/09/20 04:43:15;;;;;;;7.55;3.92;;;14.50;85.60;;;;;;4903199;29;20051;-90
2023/09/20 04:45:43;;;;;;;8.38;4.47;;;14.40;85.60;;;;;;4918462;29;20466;-91
2023/09/20 04:48:10;;;;;;;8.82;4.03;;;14.40;85.60;;;;;;4902855;29;20135;-87
2023/09/20 04:50:37;;;;;;;8.77;4.45;;;14.40;85.50;;;;;;4902235;29;20144;-87
2023/09/20 04:53:05;;;;;;;9.77;4.17;;;14.40;85.30;;;;;;4868755;29;20518;-87
2023/09/20 04:55:34;;;;;;;7.25;4.20;;;14.40;85.30;;;;;;4880439;29;20060;-86
2023/09/20 04:58:01;;;;;;;7.70;4.13;;;14.40;85.50;;;;;;4864957;29;20100;-92
2023/09/20 05:00:37;;;;;;;10.20;3.95;;;14.40;85.50;;;;;;4866060;29;20112;-92
2023/09/20 05:03:11;;;;;;;8.10;4.43;;;14.50;85.50;;;;;;4866358;29;20079;-92
2023/09/20 05:05:39;;;;;;;7.37;3.97;;;14.50;85.50;;;;;;4865656;29;20057;-94
2023/09/20 05:08:08;;;;;;;8.23;3.63;;;14.50;85.50;;;;;;4864505;29;20263;-91
2023/09/20 05:10:36;;;;;;;7.75;3.60;;;14.50;85.50;;;;;;4880625;29;20056;-93
2023/09/20 05:13:05;;;;;;;7.60;3.85;;;14.50;85.40;;;;;;4865610;29;20052;-90
2023/09/20 05:15:33;;;;;;;8.15;3.80;;;14.50;85.30;;;;;;4865364;29;20068;-92
2023/09/20 05:18:00;;;;;;;7.83;3.43;;;14.50;85.30;;;;;;4864926;29;20135;-92
2023/09/20 05:20:49;;;;;;;9.57;4.30;;;14.60;85.40;;;;;;4880927;29;20064;-92
2023/09/20 05:23:16;;;;;;;7.40;3.58;;;14.60;85.20;;;;;;4880344;29;20503;-92
2023/09/20 05:25:44;;;;;;;7.22;3.50;;;14.60;85.10;;;;;;4865113;29;20511;-93
2023/09/20 05:28:14;;;;;;;8.32;3.38;;;14.70;85.10;;;;;;4864394;29;20069;-93
2023/09/20 05:30:44;;;;;;;8.23;3.77;;;14.70;84.90;;;;;;4864527;29;20045;-92
2023/09/20 05:33:14;;;;;;;7.47;3.40;;;14.70;84.90;;;;;;4865599;29;20474;-95
2023/09/20 05:35:43;;;;;;;9.05;3.70;;;14.80;84.80;;;;;;4864688;29;20045;-92
2023/09/20 05:38:25;;;;;;;8.13;4.03;;;14.80;84.70;;;;;;4864516;29;20049;-91
2023/09/20 05:40:55;;;;;;;7.15;3.22;;;14.80;84.90;;;;;;4864284;29;20057;-94
2023/09/20 05:43:23;;;;;;;8.80;3.30;;;14.80;84.90;;;;;;4864269;29;20053;-92
2023/09/20 05:45:54;;;;;;;9.77;3.65;;;14.80;85.00;;;;;;4864850;29;20063;-93
2023/09/20 05:48:26;;;;;;;7.22;3.85;;;14.70;85.00;;;;;;4864416;29;20504;-93
2023/09/20 05:50:54;;;;;;;8.80;3.85;;;14.80;85.00;;;;;;4864393;29;20067;-92
2023/09/20 05:53:21;;;;;;;7.55;3.42;;;14.80;85.10;;;;;;4864320;29;20051;-93
2023/09/20 05:55:49;;;;;;;9.13;3.30;;;14.90;85.10;;;;;;4864244;29;20084;-92
2023/09/20 05:58:17;;;;;;;8.25;3.30;;;14.80;85.10;;;;;;4864635;29;20049;-93
2023/09/20 06:00:45;;;;;;;7.43;3.00;;;15.00;84.90;;;;;;4864980;29;20067;-93
2023/09/20 06:03:12;;;;;;;8.88;3.30;;;15.00;84.80;;;;;;4864567;29;20076;-93
2023/09/20 06:05:40;;;;;;;7.05;3.30;;;15.10;84.50;;;;;;4864242;29;20046;-93
2023/09/20 06:08:08;;;;;;;7.97;2.97;;;15.10;84.30;;;;;;4864367;29;20045;-92
2023/09/20 06:10:44;;;;;;;6.63;3.15;;;15.20;84.20;;;;;;4864199;29;20049;-91
2023/09/20 06:13:11;;;;;;;7.18;3.13;;;15.30;84.20;;;;;;4865137;29;20041;-93
2023/09/20 06:15:39;;;;;;;7.25;2.88;;;15.50;84.20;;;;;;4864044;29;20100;-93
2023/09/20 06:18:09;;;;;;;7.32;3.40;;;15.50;83.60;;;;;;4864175;29;20053;-93
2023/09/20 06:20:45;;;;;;;5.73;2.83;;;15.60;83.20;;;;;;4868701;29;20053;-93
2023/09/20 06:23:14;;;;;;;7.68;2.50;;;15.80;83.30;;;;;;4883645;29;20057;-91
2023/09/20 06:25:42;;;;;;;7.78;2.65;;;15.90;82.90;;;;;;4867844;29;20526;-92
2023/09/20 06:28:14;;;;;;;5.90;2.78;;;16.00;83.00;;;;;;4868241;29;20049;-92
2023/09/20 06:30:43;;;;;;;7.22;2.72;;;16.10;82.50;;;;;;4868058;29;20053;-93
2023/09/20 06:33:11;;;;;;;7.13;2.80;;;16.20;82.10;;;;;;4867700;29;20144;-91
2023/09/20 06:35:43;;;;;;;7.18;2.83;;;16.40;81.90;;;;;;4867630;29;20049;-93
2023/09/20 06:38:10;;;;;;;5.65;2.45;;;16.50;81.70;;;;;;4867763;29;20049;-92
2023/09/20 06:40:40;;;;;;;5.38;2.22;;;16.60;81.40;;;;;;4867462;29;20053;-94
2023/09/20 06:43:08;;;;;;;5.18;2.35;;;16.70;81.00;;;;;;4867645;29;20057;-92
2023/09/20 06:45:36;;;;;;;5.73;1.90;;;16.80;80.10;;;;;;4867830;29;20415;-92
2023/09/20 06:48:05;;;;;;;5.88;2.47;;;16.90;80.90;;;;;;4882569;29;20511;-92
2023/09/20 06:50:33;;;;;;;9.00;2.80;;;17.00;79.80;;;;;;4867370;29;20419;-93
2023/09/20 06:53:00;;;;;;;5.90;2.58;;;17.10;79.50;;;;;;4867515;29;20056;-93
2023/09/20 06:55:28;;;;;;;6.00;2.42;;;17.10;79.50;;;;;;4867271;29;20045;-92
2023/09/20 06:57:58;;;;;;;6.73;2.57;;;17.20;79.50;;;;;;4882686;29;20055;-92
2023/09/20 07:00:46;;;;;;;8.60;2.15;;;17.30;79.30;;;;;;4869874;29;20052;-93
2023/09/20 07:03:13;;;;;;;4.78;2.20;;;17.40;78.30;;;;;;4867268;29;20143;-92
2023/09/20 07:05:40;;;;;;;7.03;2.28;;;17.40;79.00;;;;;;4882551;29;20060;-93
2023/09/20 07:08:11;;;;;;;5.38;2.13;;;17.50;78.50;;;;;;4867110;29;20053;-94
2023/09/20 07:10:41;;;;;;;6.10;2.50;;;17.60;78.60;;;;;;4867568;29;20049;-94
2023/09/20 07:13:09;;;;;;;6.88;2.10;;;17.60;78.50;;;;;;4866947;29;20518;-93
2023/09/20 07:15:37;;;;;;;6.25;2.33;;;17.80;78.40;;;;;;4867197;29;20053;-93
2023/09/20 07:18:11;;;;;;;5.63;1.98;;;17.90;77.90;;;;;;4867140;29;20055;-93
2023/09/20 07:20:41;;;;;;;5.05;1.67;;;17.90;77.50;;;;;;4866886;29;20084;-93
2023/09/20 07:23:10;;;;;;;8.37;2.27;;;18.00;77.30;;;;;;4866884;29;20053;-93
2023/09/20 07:25:39;;;;;;;6.13;1.90;;;18.10;76.50;;;;;;4867086;29;20048;-93
2023/09/20 07:28:07;;;;;;;4.65;2.00;;;18.20;77.00;;;;;;4867077;29;20503;-92
2023/09/20 07:30:44;;;;;;;6.97;2.00;;;18.30;76.50;;;;;;4866588;29;20403;-94
2023/09/20 07:33:19;;;;;;;6.97;2.05;;;18.30;76.30;;;;;;4866922;29;20097;-92
2023/09/20 07:35:58;;;;;;;5.33;1.90;;;18.40;76.10;;;;;;4882441;29;20057;-94
2023/09/20 07:38:28;;;;;;;6.47;1.95;;;18.60;75.90;;;;;;4866834;29;20057;-92
2023/09/20 07:41:09;;;;;;;6.68;2.00;;;18.60;75.50;;;;;;4867255;29;20052;-93
2023/09/20 07:43:38;;;;;;;7.38;2.00;;;18.70;74.90;;;;;;4866764;29;20045;-94
2023/09/20 07:46:05;;;;;;;5.82;1.90;;;18.80;74.20;;;;;;4866769;29;20100;-93
2023/09/20 07:48:34;;;;;;;5.63;1.90;;;18.80;73.60;;;;;;4866963;29;20049;-94
2023/09/20 07:51:04;;;;;;;5.07;1.77;;;18.90;74.30;;;;;;4866747;29;20495;-92
2023/09/20 07:53:31;;;;;;;4.45;2.08;;;19.00;74.00;;;;;;4866022;29;20527;-93
2023/09/20 07:56:03;;;;;;;6.40;2.30;;;19.00;73.70;;;;;;4866058;29;20503;-95
2023/09/20 07:58:40;;;;;;;5.93;1.98;;;19.10;72.70;;;;;;4866335;29;20049;-93
2023/09/20 08:01:24;;;;;;;3.67;1.40;;;19.10;73.80;;;;;;4895748;29;20052;-96
2023/09/20 08:04:10;;;;;;;7.20;1.63;;;19.20;73.40;;;;;;4899344;29;20049;-96
2023/09/20 08:06:40;;;;;;;5.32;1.77;;;19.40;72.00;;;;;;4893885;29;20049;-96
2023/09/20 08:09:12;;;;;;;6.55;1.67;;;19.50;72.00;;;;;;4883690;29;20070;-96
2023/09/20 08:11:44;;;;;;;6.35;1.83;;;19.50;71.50;;;;;;4900034;29;20116;-96
2023/09/20 08:14:51;;;;;;;7.23;1.80;;;19.60;71.20;;;;;;4929648;23;20076;-96
2023/09/20 08:20:42;;;;;;;6.90;1.90;;;19.80;71.30;;;;;;4918406;29;20071;-95
2023/09/20 09:03:54;;;;;;;4.35;0.70;;;20.80;59.30;;;;;;4922055;29;20043;-96
2023/09/20 09:08:25;;;;;;;2.17;0.60;;;20.90;58.60;;;;;;4882291;29;20109;-96
2023/09/20 09:16:00;;;;;;;2.20;0.80;;;21.10;60.80;;;;;;4881752;29;20028;-95
2023/09/20 09:18:41;;;;;;;2.42;0.60;;;21.20;57.90;;;;;;4905287;29;20037;-96
2023/09/20 09:21:17;;;;;;;8.45;0.93;;;21.20;57.50;;;;;;4901827;29;20049;-95
2023/09/20 09:23:49;;;;;;;2.40;0.60;;;21.20;57.90;;;;;;4886707;29;20053;-96
2023/09/20 09:26:34;;;;;;;3.72;0.70;;;21.20;57.30;;;;;;4903725;29;20131;-95
2023/09/20 09:29:21;;;;;;;5.00;0.70;;;21.30;58.50;;;;;;4885303;29;20072;-96
2023/09/20 09:32:14;;;;;;;6.07;1.13;;;21.40;58.50;;;;;;4889819;29;20052;-96
2023/09/20 09:35:05;;;;;;;4.45;0.80;;;21.50;57.50;;;;;;4902062;29;20052;-96
2023/09/20 09:37:53;;;;;;;3.93;0.70;;;21.50;57.00;;;;;;4912378;29;20044;-96
2023/09/20 09:44:51;;;;;;;31.75;3.45;;;21.70;56.20;;;;;;4921141;29;20045;-96
2023/09/20 09:51:53;;;;;;;4.57;1.65;;;21.70;58.40;;;;;;4917991;29;20040;-96
2023/09/20 09:54:38;;;;;;;4.47;0.90;;;21.70;56.10;;;;;;4917431;29;20057;-96
2023/09/20 09:57:18;;;;;;;3.17;0.68;;;21.80;58.20;;;;;;4920314;29;20052;-96
2023/09/20 10:05:07;;;;;;;2.38;0.55;;;21.90;58.00;;;;;;4920397;29;20093;-96
2023/09/20 10:08:14;;;;;;;1.92;0.52;;;21.90;56.90;;;;;;4892840;29;20057;-95
2023/09/20 10:10:56;;;;;;;2.13;0.50;;;22.00;56.80;;;;;;4903384;29;20051;-96
2023/09/20 10:13:40;;;;;;;4.38;0.70;;;22.00;56.30;;;;;;4918768;29;20048;-95
2023/09/20 10:21:15;;;;;;;3.25;0.70;;;22.10;57.00;;;;;;4921503;29;20672;-96
2023/09/20 10:24:23;;;;;;;4.65;0.80;;;22.20;54.60;;;;;;4908970;29;20060;-96
2023/09/20 10:27:10;;;;;;;2.10;0.53;;;22.20;56.60;;;;;;4916600;29;20037;-96
2023/09/20 10:30:09;;;;;;;3.25;0.50;;;22.40;58.10;;;;;;4903888;29;20052;-96
2023/09/20 10:38:08;;;;;;;3.47;0.73;;;22.50;54.20;;;;;;4881643;29;20049;-95
2023/09/20 10:40:57;;;;;;;2.80;0.60;;;22.60;58.00;;;;;;4841827;29;20022;-96
2023/09/20 10:43:43;;;;;;;2.53;0.50;;;22.60;55.60;;;;;;4850928;29;20105;-96
2023/09/20 10:46:41;;;;;;;2.97;0.60;;;22.60;53.90;;;;;;4866017;29;20076;-96
2023/09/20 10:49:56;;;;;;;2.90;0.50;;;22.60;54.60;;;;;;4855817;29;20059;-96
2023/09/20 10:52:58;;;;;;;3.42;0.80;;;22.70;55.10;;;;;;4835062;29;20125;-96
2023/09/20 10:55:45;;;;;;;4.45;0.80;;;22.80;54.60;;;;;;4862780;29;20033;-95
2023/09/20 10:58:35;;;;;;;4.07;0.60;;;22.90;52.50;;;;;;4863396;29;20093;-96
2023/09/20 11:02:52;;;;;;;3.13;0.70;;;23.00;53.90;;;;;;4843349;29;20071;-96
2023/09/20 11:05:36;;;;;;;5.90;0.70;;;23.00;52.20;;;;;;4843463;29;20059;-96
2023/09/20 11:08:24;;;;;;;3.25;0.80;;;23.10;53.70;;;;;;4818330;29;20625;-95
2023/09/20 11:11:08;;;;;;;2.65;0.60;;;23.10;53.20;;;;;;4874010;29;20049;-95
2023/09/20 11:13:42;;;;;;;2.07;0.50;;;23.10;52.00;;;;;;4899714;29;20045;-96
2023/09/20 11:16:19;;;;;;;1.73;0.60;;;23.10;54.10;;;;;;4885951;29;20065;-95
2023/09/20 11:19:01;;;;;;;3.88;0.70;;;23.10;51.80;;;;;;4884666;29;20049;-95
2023/09/20 11:21:41;;;;;;;3.85;0.60;;;23.10;52.20;;;;;;4884157;29;20061;-95
2023/09/20 11:24:17;;;;;;;4.10;0.80;;;23.20;52.90;;;;;;4899629;29;20101;-96
2023/09/20 11:26:50;;;;;;;4.90;0.80;;;23.30;52.30;;;;;;4900302;29;20049;-95
2023/09/20 11:29:38;;;;;;;4.30;0.70;;;23.30;51.80;;;;;;4872803;29;20052;-96
2023/09/20 11:32:22;;;;;;;3.45;0.82;;;23.50;52.70;;;;;;4877778;29;20055;-96
2023/09/20 11:34:57;;;;;;;3.25;0.63;;;23.60;52.30;;;;;;4919312;29;20045;-95
2023/09/20 11:37:38;;;;;;;3.47;0.80;;;23.60;50.40;;;;;;4906322;29;20044;-96
2023/09/20 11:44:25;;;;;;;7.32;0.70;;;23.70;51.20;;;;;;4885617;29;20125;-95
2023/09/20 11:47:09;;;;;;;13.38;1.83;;;23.80;51.30;;;;;;4869538;29;20056;-96
2023/09/20 11:49:50;;;;;;;6.55;1.25;;;23.90;52.00;;;;;;4883624;29;20108;-96
2023/09/20 11:52:22;;;;;;;2.60;0.70;;;24.00;53.80;;;;;;4867757;29;20041;-96
2023/09/20 11:54:57;;;;;;;2.90;0.70;;;24.10;50.40;;;;;;4853032;29;20045;-96
2023/09/20 11:57:26;;;;;;;2.67;0.60;;;24.10;49.60;;;;;;4882364;29;20051;-95
2023/09/20 11:59:56;;;;;;;3.85;0.93;;;24.10;49.90;;;;;;4866140;29;20082;-96
2023/09/20 12:02:28;;;;;;;17.20;2.20;;;24.10;50.20;;;;;;4867496;29;20124;-96
2023/09/20 12:05:00;;;;;;;4.75;0.90;;;24.20;50.90;;;;;;4866914;29;20415;-96
2023/09/20 12:07:33;;;;;;;3.03;0.50;;;24.20;51.00;;;;;;4867706;29;20055;-95
2023/09/20 12:10:06;;;;;;;2.58;0.50;;;24.30;50.90;;;;;;4879135;29;20088;-96
2023/09/20 12:12:38;;;;;;;3.55;0.60;;;24.30;50.50;;;;;;4896393;29;20517;-96
2023/09/20 12:15:09;;;;;;;5.82;3.55;;;24.50;51.30;;;;;;4915121;29;20061;-95
2023/09/20 12:17:39;;;;;;;14.77;7.93;;;24.50;49.40;;;;;;4896683;29;20135;-95
2023/09/20 12:20:10;;;;;;;8.70;4.10;;;24.50;49.90;;;;;;4899169;29;20056;-96
2023/09/20 12:22:41;;;;;;;7.38;3.58;;;24.60;50.40;;;;;;4898215;29;20072;-96
2023/09/20 12:25:11;;;;;;;5.35;0.93;;;24.70;49.90;;;;;;4912375;29;20049;-95
2023/09/20 12:27:45;;;;;;;8.43;4.13;;;24.80;49.00;;;;;;4910246;29;20076;-96
2023/09/20 12:30:13;;;;;;;13.63;6.15;;;24.80;49.10;;;;;;4905173;29;20057;-96
2023/09/20 12:32:41;;;;;;;4.57;1.07;;;24.70;48.90;;;;;;4894656;29;20056;-96
2023/09/20 12:35:15;;;;;;;1.90;0.57;;;24.70;48.30;;;;;;4894755;29;20049;-96
2023/09/20 12:40:52;;;;;;;41.45;21.38;;;24.60;48.20;;;;;;4945396;23;20049;-96
2023/09/20 12:43:22;;;;;;;6.07;2.20;;;24.60;47.70;;;;;;4902021;29;20053;-96
2023/09/20 12:45:53;;;;;;;6.57;2.33;;;24.60;48.20;;;;;;4882249;29;20055;-96
2023/09/20 12:48:37;;;;;;;44.65;24.50;;;24.80;47.80;;;;;;4900639;29;20044;-96
2023/09/20 12:51:12;;;;;;;17.92;3.78;;;24.80;49.30;;;;;;4900695;29;20052;-96
2023/09/20 12:53:44;;;;;;;5.07;1.17;;;24.90;49.50;;;;;;4898724;29;20048;-95
2023/09/20 12:56:16;;;;;;;4.82;1.25;;;24.90;48.70;;;;;;4897771;29;20060;-95
2023/09/20 12:58:44;;;;;;;7.33;2.50;;;25.00;48.00;;;;;;4901019;29;20052;-96
2023/09/20 13:02:17;;;;;;;14.35;7.95;;;25.00;48.20;;;;;;4867500;29;20125;-94
2023/09/20 15:22:41;;;;;;;17.05;5.70;;;24.30;49.10;;;;;;4927384;23;20049;-96
2023/09/20 15:25:12;;;;;;;7.60;1.58;;;24.20;49.10;;;;;;4899778;29;20049;-96
2023/09/20 15:27:50;;;;;;;12.52;2.92;;;24.10;48.80;;;;;;4898335;29;20049;-96
2023/09/20 15:30:19;;;;;;;6.63;1.40;;;24.10;49.40;;;;;;4881235;29;20117;-96
2023/09/20 15:32:47;;;;;;;8.67;1.83;;;24.10;49.00;;;;;;4896384;29;20049;-96
2023/09/20 15:35:15;;;;;;;16.17;4.38;;;24.00;48.90;;;;;;4883344;29;20045;-96
2023/09/20 15:37:45;;;;;;;8.02;1.88;;;24.00;49.00;;;;;;4883562;29;20053;-96
2023/09/20 15:40:15;;;;;;;6.43;1.60;;;23.90;50.00;;;;;;4901090;29;20044;-96
2023/09/20 15:42:48;;;;;;;8.05;1.70;;;23.90;51.30;;;;;;4885229;29;20057;-96
2023/09/20 15:45:17;;;;;;;4.43;1.10;;;23.80;52.20;;;;;;4886747;29;20033;-95
2023/09/20 15:48:04;;;;;;;4.50;0.90;;;23.80;52.70;;;;;;4894164;29;20060;-96
2023/09/20 15:57:54;;;;;;;3.25;0.95;;;23.50;53.30;;;;;;1963338;23;20333;-95
2023/09/20 16:00:25;;;;;;;5.03;0.80;;;23.40;54.10;;;;;;4857346;29;20049;-96
2023/09/20 16:02:56;;;;;;;4.00;0.88;;;23.40;55.80;;;;;;4855906;29;20500;-95
2023/09/20 16:05:23;;;;;;;3.55;1.05;;;23.40;56.80;;;;;;4864002;29;20050;-94
2023/09/20 16:07:53;;;;;;;3.58;1.00;;;23.30;57.50;;;;;;4848660;29;20049;-95
2023/09/20 16:10:22;;;;;;;3.97;1.15;;;23.30;57.30;;;;;;4848660;29;20575;-95
2023/09/20 16:12:49;;;;;;;5.50;1.90;;;23.20;58.20;;;;;;4847989;29;20053;-96
2023/09/20 16:15:21;;;;;;;5.60;1.80;;;23.10;58.60;;;;;;4847587;29;20086;-95
2023/09/20 16:17:54;;;;;;;4.40;1.10;;;22.90;57.90;;;;;;4847823;29;20049;-93
2023/09/20 16:20:23;;;;;;;63.10;17.15;;;22.90;56.60;;;;;;4848830;29;20053;-94
2023/09/20 16:22:51;;;;;;;9.38;2.67;;;22.80;58.70;;;;;;4862894;29;20057;-92
2023/09/20 16:25:18;;;;;;;8.87;3.63;;;22.70;58.80;;;;;;4847766;29;20049;-93
2023/09/20 16:27:45;;;;;;;17.67;6.70;;;22.60;59.20;;;;;;4847284;29;20140;-94
2023/09/20 16:30:14;;;;;;;10.63;3.42;;;22.60;59.80;;;;;;4863260;29;20543;-92
2023/09/20 16:32:43;;;;;;;9.68;2.55;;;22.40;59.20;;;;;;4847182;29;20053;-92
2023/09/20 16:35:14;;;;;;;7.45;1.88;;;22.40;59.20;;;;;;4847191;29;20049;-92
2023/09/20 16:37:42;;;;;;;8.17;3.30;;;22.30;59.10;;;;;;4846973;29;20049;-93
2023/09/20 16:40:11;;;;;;;7.05;2.90;;;22.20;59.60;;;;;;4862700;29;20499;-93
2023/09/20 16:42:39;;;;;;;8.70;3.00;;;22.10;60.30;;;;;;4847213;29;20152;-91
2023/09/20 16:45:08;;;;;;;7.10;2.92;;;22.10;61.10;;;;;;4847159;29;20089;-93
2023/09/20 16:47:40;;;;;;;6.72;2.40;;;22.00;61.10;;;;;;4847778;29;20057;-96
2023/09/20 16:50:08;;;;;;;7.43;2.37;;;21.90;60.90;;;;;;4847111;29;20057;-90
2023/09/20 16:52:35;;;;;;;6.47;2.10;;;21.80;61.10;;;;;;4843815;29;20500;-90
2023/09/20 16:55:05;;;;;;;6.50;2.53;;;21.70;61.90;;;;;;4863017;29;20488;-93
2023/09/20 16:57:33;;;;;;;8.00;2.67;;;21.60;62.50;;;;;;4857004;29;20050;-93
2023/09/20 17:00:00;;;;;;;8.18;2.85;;;21.60;62.70;;;;;;4873726;29;20085;-93
2023/09/20 17:02:28;;;;;;;134.60;27.47;;;21.50;62.90;;;;;;4856293;29;20091;-93